sensor_id;sensor_type;location;lat;lon;timestamp;temperature;humidity
37285;DHT22;23172;53.550;9.964;2023-09-19T00:00:56;19.20;99.10
37285;DHT22;23172;53.550;9.964;2023-09-19T00:05:58;19.20;99.10
37285;DHT22;23172;53.550;9.964;2023-09-19T00:11:01;19.20;99.10
37285;DHT22;23172;53.550;9.964;2023-09-19T00:16:08;19.20;99.10
37285;DHT22;23172;53.550;9.964;2023-09-19T00:21:11;19.20;99.30
37285;DHT22;23172;53.550;9.964;2023-09-19T00:26:14;19.20;99.30
37285;DHT22;23172;53.550;9.964;2023-09-19T00:31:18;19.20;99.30
37285;DHT22;23172;53.550;9.964;2023-09-19T00:36:20;19.20;99.20
37285;DHT22;23172;53.550;9.964;2023-09-19T00:41:23;19.20;99.20
37285;DHT22;23172;53.550;9.964;2023-09-19T00:46:26;19.30;99.20
37285;DHT22;23172;53.550;9.964;2023-09-19T00:51:28;19.30;99.20
37285;DHT22;23172;53.550;9.964;2023-09-19T00:56:31;19.30;99.10
37285;DHT22;23172;53.550;9.964;2023-09-19T01:01:33;19.30;99.10
37285;DHT22;23172;53.550;9.964;2023-09-19T01:06:35;19.30;99.10
37285;DHT22;23172;53.550;9.964;2023-09-19T01:11:43;19.30;99.10
37285;DHT22;23172;53.550;9.964;2023-09-19T01:16:53;19.20;99.10
37285;DHT22;23172;53.550;9.964;2023-09-19T01:22:07;19.20;99.10
37285;DHT22;23172;53.550;9.964;2023-09-19T01:27:46;19.20;99.10
37285;DHT22;23172;53.550;9.964;2023-09-19T01:32:56;19.20;99.00
37285;DHT22;23172;53.550;9.964;2023-09-19T01:37:58;19.30;98.70
37285;DHT22;23172;53.550;9.964;2023-09-19T01:43:08;19.20;98.60
37285;DHT22;23172;53.550;9.964;2023-09-19T01:48:19;19.30;98.50
37285;DHT22;23172;53.550;9.964;2023-09-19T01:53:27;19.20;98.20
37285;DHT22;23172;53.550;9.964;2023-09-19T01:58:39;19.20;97.90
37285;DHT22;23172;53.550;9.964;2023-09-19T02:03:46;19.10;97.10
37285;DHT22;23172;53.550;9.964;2023-09-19T02:08:49;19.10;97.20
37285;DHT22;23172;53.550;9.964;2023-09-19T02:13:51;19.00;97.70
37285;DHT22;23172;53.550;9.964;2023-09-19T02:18:56;18.90;97.50
37285;DHT22;23172;53.550;9.964;2023-09-19T02:23:58;18.90;97.70
37285;DHT22;23172;53.550;9.964;2023-09-19T02:29:00;18.90;98.10
37285;DHT22;23172;53.550;9.964;2023-09-19T02:39:26;18.80;98.40
37285;DHT22;23172;53.550;9.964;2023-09-19T02:44:29;18.70;98.60
37285;DHT22;23172;53.550;9.964;2023-09-19T02:49:33;18.70;98.80
37285;DHT22;23172;53.550;9.964;2023-09-19T02:54:35;18.60;99.00
37285;DHT22;23172;53.550;9.964;2023-09-19T02:59:37;18.60;99.00
37285;DHT22;23172;53.550;9.964;2023-09-19T03:04:41;18.60;98.90
37285;DHT22;23172;53.550;9.964;2023-09-19T03:09:42;18.60;98.80
37285;DHT22;23172;53.550;9.964;2023-09-19T03:14:45;18.50;98.60
37285;DHT22;23172;53.550;9.964;2023-09-19T03:19:48;18.50;98.50
37285;DHT22;23172;53.550;9.964;2023-09-19T03:24:50;18.60;98.40
37285;DHT22;23172;53.550;9.964;2023-09-19T03:29:52;18.60;98.30
37285;DHT22;23172;53.550;9.964;2023-09-19T03:34:56;18.60;98.20
37285;DHT22;23172;53.550;9.964;2023-09-19T03:39:58;18.60;98.00
37285;DHT22;23172;53.550;9.964;2023-09-19T03:45:00;18.60;97.50
37285;DHT22;23172;53.550;9.964;2023-09-19T03:50:07;18.50;97.30
37285;DHT22;23172;53.550;9.964;2023-09-19T03:55:11;18.50;97.00
37285;DHT22;23172;53.550;9.964;2023-09-19T04:00:13;18.30;96.60
37285;DHT22;23172;53.550;9.964;2023-09-19T04:05:22;18.20;96.40
37285;DHT22;23172;53.550;9.964;2023-09-19T04:10:24;18.10;95.60
37285;DHT22;23172;53.550;9.964;2023-09-19T04:15:26;18.00;95.60
37285;DHT22;23172;53.550;9.964;2023-09-19T04:20:29;18.00;94.70
37285;DHT22;23172;53.550;9.964;2023-09-19T04:25:32;17.80;93.30
37285;DHT22;23172;53.550;9.964;2023-09-19T04:30:34;17.70;93.60
37285;DHT22;23172;53.550;9.964;2023-09-19T04:35:37;17.60;93.50
37285;DHT22;23172;53.550;9.964;2023-09-19T04:40:39;17.60;93.50
37285;DHT22;23172;53.550;9.964;2023-09-19T04:45:41;17.50;93.10
37285;DHT22;23172;53.550;9.964;2023-09-19T04:50:44;17.50;93.50
37285;DHT22;23172;53.550;9.964;2023-09-19T04:55:50;17.50;93.10
37285;DHT22;23172;53.550;9.964;2023-09-19T05:00:52;17.40;93.20
37285;DHT22;23172;53.550;9.964;2023-09-19T05:05:56;17.40;93.50
37285;DHT22;23172;53.550;9.964;2023-09-19T05:10:58;17.40;93.50
37285;DHT22;23172;53.550;9.964;2023-09-19T05:16:00;17.30;93.50
37285;DHT22;23172;53.550;9.964;2023-09-19T05:21:04;17.30;93.80
37285;DHT22;23172;53.550;9.964;2023-09-19T05:26:06;17.30;94.00
37285;DHT22;23172;53.550;9.964;2023-09-19T05:31:08;17.30;94.00
37285;DHT22;23172;53.550;9.964;2023-09-19T05:36:11;17.30;93.90
37285;DHT22;23172;53.550;9.964;2023-09-19T05:41:13;17.30;93.80
37285;DHT22;23172;53.550;9.964;2023-09-19T05:46:16;17.30;93.50
37285;DHT22;23172;53.550;9.964;2023-09-19T05:51:20;17.30;93.50
37285;DHT22;23172;53.550;9.964;2023-09-19T05:56:23;17.30;93.70
37285;DHT22;23172;53.550;9.964;2023-09-19T06:01:25;17.30;93.90
37285;DHT22;23172;53.550;9.964;2023-09-19T06:06:29;17.30;93.70
37285;DHT22;23172;53.550;9.964;2023-09-19T06:11:30;17.30;93.70
37285;DHT22;23172;53.550;9.964;2023-09-19T06:16:35;17.50;93.60
37285;DHT22;23172;53.550;9.964;2023-09-19T06:21:39;17.60;93.20
37285;DHT22;23172;53.550;9.964;2023-09-19T06:26:41;17.60;93.10
37285;DHT22;23172;53.550;9.964;2023-09-19T06:31:44;17.70;93.00
37285;DHT22;23172;53.550;9.964;2023-09-19T06:36:48;17.70;92.10
37285;DHT22;23172;53.550;9.964;2023-09-19T06:41:50;17.80;92.10
37285;DHT22;23172;53.550;9.964;2023-09-19T06:46:54;17.90;91.40
37285;DHT22;23172;53.550;9.964;2023-09-19T06:51:57;18.00;91.40
37285;DHT22;23172;53.550;9.964;2023-09-19T06:57:01;18.00;91.00
37285;DHT22;23172;53.550;9.964;2023-09-19T07:02:03;18.00;90.80
37285;DHT22;23172;53.550;9.964;2023-09-19T07:07:07;18.30;90.50
37285;DHT22;23172;53.550;9.964;2023-09-19T07:12:10;18.30;90.30
37285;DHT22;23172;53.550;9.964;2023-09-19T07:17:12;18.40;90.10
37285;DHT22;23172;53.550;9.964;2023-09-19T07:22:20;18.40;90.00
37285;DHT22;23172;53.550;9.964;2023-09-19T07:27:24;18.60;89.50
37285;DHT22;23172;53.550;9.964;2023-09-19T07:32:26;18.70;88.50
37285;DHT22;23172;53.550;9.964;2023-09-19T07:37:30;18.80;87.80
37285;DHT22;23172;53.550;9.964;2023-09-19T07:42:33;18.70;86.80
37285;DHT22;23172;53.550;9.964;2023-09-19T07:47:35;18.70;86.90
37285;DHT22;23172;53.550;9.964;2023-09-19T07:52:39;18.70;86.30
37285;DHT22;23172;53.550;9.964;2023-09-19T07:57:40;18.60;86.10
37285;DHT22;23172;53.550;9.964;2023-09-19T08:02:43;18.50;89.10
37285;DHT22;23172;53.550;9.964;2023-09-19T08:07:46;18.50;90.20
37285;DHT22;23172;53.550;9.964;2023-09-19T08:12:49;18.40;90.60
37285;DHT22;23172;53.550;9.964;2023-09-19T08:17:56;18.40;90.80
37285;DHT22;23172;53.550;9.964;2023-09-19T08:22:59;18.50;90.60
37285;DHT22;23172;53.550;9.964;2023-09-19T08:28:01;18.70;89.30
37285;DHT22;23172;53.550;9.964;2023-09-19T08:33:08;18.90;88.10
37285;DHT22;23172;53.550;9.964;2023-09-19T08:38:12;19.10;86.00
37285;DHT22;23172;53.550;9.964;2023-09-19T08:43:14;19.20;84.30
37285;DHT22;23172;53.550;9.964;2023-09-19T08:48:24;19.20;83.20
37285;DHT22;23172;53.550;9.964;2023-09-19T08:53:34;19.30;82.20
37285;DHT22;23172;53.550;9.964;2023-09-19T08:58:44;19.40;80.80
37285;DHT22;23172;53.550;9.964;2023-09-19T09:03:48;19.50;80.30
37285;DHT22;23172;53.550;9.964;2023-09-19T09:08:52;19.60;79.30
37285;DHT22;23172;53.550;9.964;2023-09-19T09:13:54;19.80;79.10
37285;DHT22;23172;53.550;9.964;2023-09-19T09:18:58;20.00;77.50
37285;DHT22;23172;53.550;9.964;2023-09-19T09:24:28;20.10;76.80
37285;DHT22;23172;53.550;9.964;2023-09-19T09:29:41;20.10;74.40
37285;DHT22;23172;53.550;9.964;2023-09-19T09:34:44;20.10;74.50
37285;DHT22;23172;53.550;9.964;2023-09-19T09:39:54;20.30;73.30
37285;DHT22;23172;53.550;9.964;2023-09-19T09:45:12;20.70;72.60
37285;DHT22;23172;53.550;9.964;2023-09-19T09:50:14;21.00;70.70
37285;DHT22;23172;53.550;9.964;2023-09-19T09:55:57;21.20;69.80
37285;DHT22;23172;53.550;9.964;2023-09-19T10:01:00;21.60;67.90
37285;DHT22;23172;53.550;9.964;2023-09-19T10:06:10;21.70;66.60
37285;DHT22;23172;53.550;9.964;2023-09-19T10:11:27;21.90;66.20
37285;DHT22;23172;53.550;9.964;2023-09-19T10:16:31;22.00;63.00
37285;DHT22;23172;53.550;9.964;2023-09-19T10:21:34;22.00;61.60
37285;DHT22;23172;53.550;9.964;2023-09-19T10:26:39;22.10;60.70
37285;DHT22;23172;53.550;9.964;2023-09-19T10:31:44;22.20;59.70
37285;DHT22;23172;53.550;9.964;2023-09-19T10:36:48;22.20;59.50
37285;DHT22;23172;53.550;9.964;2023-09-19T10:41:55;22.20;59.30
37285;DHT22;23172;53.550;9.964;2023-09-19T10:47:00;22.20;59.30
37285;DHT22;23172;53.550;9.964;2023-09-19T10:52:06;22.30;58.60
37285;DHT22;23172;53.550;9.964;2023-09-19T10:57:10;22.10;58.90
37285;DHT22;23172;53.550;9.964;2023-09-19T11:02:17;21.90;59.80
37285;DHT22;23172;53.550;9.964;2023-09-19T11:07:20;21.90;59.20
37285;DHT22;23172;53.550;9.964;2023-09-19T11:12:50;22.10;59.00
37285;DHT22;23172;53.550;9.964;2023-09-19T11:17:52;22.20;58.90
37285;DHT22;23172;53.550;9.964;2023-09-19T11:23:19;22.10;58.90
37285;DHT22;23172;53.550;9.964;2023-09-19T11:28:32;22.30;58.10
37285;DHT22;23172;53.550;9.964;2023-09-19T11:33:33;22.30;57.70
37285;DHT22;23172;53.550;9.964;2023-09-19T11:39:00;22.40;57.30
37285;DHT22;23172;53.550;9.964;2023-09-19T11:44:35;22.40;55.90
37285;DHT22;23172;53.550;9.964;2023-09-19T11:49:40;22.30;56.60
37285;DHT22;23172;53.550;9.964;2023-09-19T11:54:43;22.20;57.50
37285;DHT22;23172;53.550;9.964;2023-09-19T11:59:49;22.10;57.40
37285;DHT22;23172;53.550;9.964;2023-09-19T12:04:54;22.00;57.70
37285;DHT22;23172;53.550;9.964;2023-09-19T12:10:03;22.10;57.90
37285;DHT22;23172;53.550;9.964;2023-09-19T12:15:09;22.10;57.90
37285;DHT22;23172;53.550;9.964;2023-09-19T12:20:11;22.00;57.60
37285;DHT22;23172;53.550;9.964;2023-09-19T12:25:14;22.00;57.60
37285;DHT22;23172;53.550;9.964;2023-09-19T12:30:19;21.90;57.90
37285;DHT22;23172;53.550;9.964;2023-09-19T12:35:27;22.10;58.00
37285;DHT22;23172;53.550;9.964;2023-09-19T12:40:30;22.20;57.30
37285;DHT22;23172;53.550;9.964;2023-09-19T12:45:35;22.10;57.40
37285;DHT22;23172;53.550;9.964;2023-09-19T12:51:00;22.20;57.30
37285;DHT22;23172;53.550;9.964;2023-09-19T12:56:06;22.20;57.10
37285;DHT22;23172;53.550;9.964;2023-09-19T13:01:15;22.20;57.20
37285;DHT22;23172;53.550;9.964;2023-09-19T13:06:35;22.30;57.10
37285;DHT22;23172;53.550;9.964;2023-09-19T13:11:39;22.30;55.80
37285;DHT22;23172;53.550;9.964;2023-09-19T13:17:00;22.30;55.80
37285;DHT22;23172;53.550;9.964;2023-09-19T13:22:37;22.40;55.70
37285;DHT22;23172;53.550;9.964;2023-09-19T13:27:40;22.50;55.50
37285;DHT22;23172;53.550;9.964;2023-09-19T13:32:44;22.50;55.10
37285;DHT22;23172;53.550;9.964;2023-09-19T13:37:47;22.50;55.20
37285;DHT22;23172;53.550;9.964;2023-09-19T13:42:52;22.40;55.20
37285;DHT22;23172;53.550;9.964;2023-09-19T13:47:55;22.30;55.30
37285;DHT22;23172;53.550;9.964;2023-09-19T13:52:57;22.30;55.10
37285;DHT22;23172;53.550;9.964;2023-09-19T13:58:01;22.20;55.10
37285;DHT22;23172;53.550;9.964;2023-09-19T14:03:04;22.20;55.10
37285;DHT22;23172;53.550;9.964;2023-09-19T14:08:06;22.20;55.10
37285;DHT22;23172;53.550;9.964;2023-09-19T14:13:08;22.20;55.00
37285;DHT22;23172;53.550;9.964;2023-09-19T14:18:12;22.10;55.20
37285;DHT22;23172;53.550;9.964;2023-09-19T14:23:14;22.30;55.20
37285;DHT22;23172;53.550;9.964;2023-09-19T14:28:16;22.30;55.20
37285;DHT22;23172;53.550;9.964;2023-09-19T14:33:20;22.20;55.40
37285;DHT22;23172;53.550;9.964;2023-09-19T14:38:22;22.20;55.70
37285;DHT22;23172;53.550;9.964;2023-09-19T14:43:23;22.20;55.90
37285;DHT22;23172;53.550;9.964;2023-09-19T14:48:27;22.20;56.30
37285;DHT22;23172;53.550;9.964;2023-09-19T14:53:28;22.20;56.50
37285;DHT22;23172;53.550;9.964;2023-09-19T14:58:30;22.10;56.80
37285;DHT22;23172;53.550;9.964;2023-09-19T15:03:34;22.10;57.20
37285;DHT22;23172;53.550;9.964;2023-09-19T15:08:37;21.90;57.70
37285;DHT22;23172;53.550;9.964;2023-09-19T15:13:40;21.80;58.20
37285;DHT22;23172;53.550;9.964;2023-09-19T15:18:45;21.70;58.70
37285;DHT22;23172;53.550;9.964;2023-09-19T15:23:48;21.60;59.10
37285;DHT22;23172;53.550;9.964;2023-09-19T15:28:50;21.50;59.40
37285;DHT22;23172;53.550;9.964;2023-09-19T15:33:53;21.40;59.90
37285;DHT22;23172;53.550;9.964;2023-09-19T15:38:57;21.40;60.10
37285;DHT22;23172;53.550;9.964;2023-09-19T15:44:01;21.40;60.70
37285;DHT22;23172;53.550;9.964;2023-09-19T15:49:05;21.40;60.80
37285;DHT22;23172;53.550;9.964;2023-09-19T15:54:08;21.40;61.00
37285;DHT22;23172;53.550;9.964;2023-09-19T15:59:11;21.40;61.10
37285;DHT22;23172;53.550;9.964;2023-09-19T16:04:15;21.40;61.10
37285;DHT22;23172;53.550;9.964;2023-09-19T16:09:17;21.30;61.20
37285;DHT22;23172;53.550;9.964;2023-09-19T16:14:19;21.20;61.70
37285;DHT22;23172;53.550;9.964;2023-09-19T16:19:25;21.00;61.80
37285;DHT22;23172;53.550;9.964;2023-09-19T16:24:27;21.00;62.10
37285;DHT22;23172;53.550;9.964;2023-09-19T16:29:29;21.00;62.30
37285;DHT22;23172;53.550;9.964;2023-09-19T16:34:32;21.00;62.30
37285;DHT22;23172;53.550;9.964;2023-09-19T16:39:34;20.90;62.50
37285;DHT22;23172;53.550;9.964;2023-09-19T16:44:37;20.90;62.60
37285;DHT22;23172;53.550;9.964;2023-09-19T16:49:40;20.80;62.70
37285;DHT22;23172;53.550;9.964;2023-09-19T16:54:42;20.70;63.00
37285;DHT22;23172;53.550;9.964;2023-09-19T16:59:44;20.70;63.40
37285;DHT22;23172;53.550;9.964;2023-09-19T17:04:47;20.70;63.70
37285;DHT22;23172;53.550;9.964;2023-09-19T17:09:49;20.70;63.90
37285;DHT22;23172;53.550;9.964;2023-09-19T17:14:51;20.70;63.80
37285;DHT22;23172;53.550;9.964;2023-09-19T17:19:54;20.70;64.30
37285;DHT22;23172;53.550;9.964;2023-09-19T17:24:56;20.60;64.50
37285;DHT22;23172;53.550;9.964;2023-09-19T17:29:59;20.60;64.80
37285;DHT22;23172;53.550;9.964;2023-09-19T17:35:03;20.60;64.90
37285;DHT22;23172;53.550;9.964;2023-09-19T17:40:07;20.60;64.90
37285;DHT22;23172;53.550;9.964;2023-09-19T17:45:11;20.60;65.00
37285;DHT22;23172;53.550;9.964;2023-09-19T17:50:15;20.60;64.90
37285;DHT22;23172;53.550;9.964;2023-09-19T17:55:17;20.60;65.10
37285;DHT22;23172;53.550;9.964;2023-09-19T18:00:19;20.50;65.20
37285;DHT22;23172;53.550;9.964;2023-09-19T18:05:22;20.50;65.20
37285;DHT22;23172;53.550;9.964;2023-09-19T18:10:24;20.50;65.10
37285;DHT22;23172;53.550;9.964;2023-09-19T18:15:26;20.50;65.30
37285;DHT22;23172;53.550;9.964;2023-09-19T18:20:35;20.50;65.10
37285;DHT22;23172;53.550;9.964;2023-09-19T18:25:37;20.40;65.10
37285;DHT22;23172;53.550;9.964;2023-09-19T18:30:39;20.40;65.40
37285;DHT22;23172;53.550;9.964;2023-09-19T18:35:42;20.50;65.40
37285;DHT22;23172;53.550;9.964;2023-09-19T18:40:44;20.50;65.40
37285;DHT22;23172;53.550;9.964;2023-09-19T18:45:55;20.50;65.20
37285;DHT22;23172;53.550;9.964;2023-09-19T18:51:04;20.50;65.70
37285;DHT22;23172;53.550;9.964;2023-09-19T18:56:08;20.50;65.90
37285;DHT22;23172;53.550;9.964;2023-09-19T19:01:11;20.40;66.00
37285;DHT22;23172;53.550;9.964;2023-09-19T19:06:17;20.40;66.30
37285;DHT22;23172;53.550;9.964;2023-09-19T19:11:19;20.30;66.60
37285;DHT22;23172;53.550;9.964;2023-09-19T19:16:22;20.30;67.00
37285;DHT22;23172;53.550;9.964;2023-09-19T19:21:28;20.30;66.90
37285;DHT22;23172;53.550;9.964;2023-09-19T19:26:30;20.30;67.40
37285;DHT22;23172;53.550;9.964;2023-09-19T19:31:33;20.30;67.80
37285;DHT22;23172;53.550;9.964;2023-09-19T19:36:38;20.30;67.90
37285;DHT22;23172;53.550;9.964;2023-09-19T19:41:41;20.30;68.20
37285;DHT22;23172;53.550;9.964;2023-09-19T19:46:44;20.20;68.20
37285;DHT22;23172;53.550;9.964;2023-09-19T19:51:47;20.30;69.30
37285;DHT22;23172;53.550;9.964;2023-09-19T19:56:50;20.30;68.80
37285;DHT22;23172;53.550;9.964;2023-09-19T20:01:52;20.30;68.70
37285;DHT22;23172;53.550;9.964;2023-09-19T20:06:55;20.20;68.90
37285;DHT22;23172;53.550;9.964;2023-09-19T20:11:57;20.20;69.70
37285;DHT22;23172;53.550;9.964;2023-09-19T20:16:59;20.20;70.00
37285;DHT22;23172;53.550;9.964;2023-09-19T20:22:02;20.20;70.10
37285;DHT22;23172;53.550;9.964;2023-09-19T20:27:07;20.20;70.10
37285;DHT22;23172;53.550;9.964;2023-09-19T20:32:09;20.10;70.70
37285;DHT22;23172;53.550;9.964;2023-09-19T20:37:13;20.10;70.90
37285;DHT22;23172;53.550;9.964;2023-09-19T20:42:16;20.10;71.60
37285;DHT22;23172;53.550;9.964;2023-09-19T20:47:18;20.10;72.10
37285;DHT22;23172;53.550;9.964;2023-09-19T20:52:21;20.00;72.90
37285;DHT22;23172;53.550;9.964;2023-09-19T20:57:23;20.00;73.30
37285;DHT22;23172;53.550;9.964;2023-09-19T21:02:24;19.90;74.20
37285;DHT22;23172;53.550;9.964;2023-09-19T21:07:28;20.00;74.30
37285;DHT22;23172;53.550;9.964;2023-09-19T21:12:30;20.00;74.50
37285;DHT22;23172;53.550;9.964;2023-09-19T21:17:31;20.00;74.40
37285;DHT22;23172;53.550;9.964;2023-09-19T21:22:35;19.90;74.20
37285;DHT22;23172;53.550;9.964;2023-09-19T21:27:37;20.00;74.30
37285;DHT22;23172;53.550;9.964;2023-09-19T21:32:39;20.00;74.30
37285;DHT22;23172;53.550;9.964;2023-09-19T21:37:42;20.00;74.20
37285;DHT22;23172;53.550;9.964;2023-09-19T21:42:44;20.00;74.40
37285;DHT22;23172;53.550;9.964;2023-09-19T21:47:46;19.90;76.00
37285;DHT22;23172;53.550;9.964;2023-09-19T21:52:50;19.80;77.10
37285;DHT22;23172;53.550;9.964;2023-09-19T21:57:51;19.80;78.80
37285;DHT22;23172;53.550;9.964;2023-09-19T22:02:53;19.60;79.90
37285;DHT22;23172;53.550;9.964;2023-09-19T22:07:57;19.60;81.10
37285;DHT22;23172;53.550;9.964;2023-09-19T22:12:58;19.60;82.30
37285;DHT22;23172;53.550;9.964;2023-09-19T22:18:00;19.60;83.30
37285;DHT22;23172;53.550;9.964;2023-09-19T22:23:07;19.50;85.10
37285;DHT22;23172;53.550;9.964;2023-09-19T22:28:12;19.50;86.10
37285;DHT22;23172;53.550;9.964;2023-09-19T22:33:16;19.40;89.10
37285;DHT22;23172;53.550;9.964;2023-09-19T22:38:21;19.30;90.60
37285;DHT22;23172;53.550;9.964;2023-09-19T22:43:24;19.30;91.30
37285;DHT22;23172;53.550;9.964;2023-09-19T22:48:32;19.30;91.90
37285;DHT22;23172;53.550;9.964;2023-09-19T22:53:36;19.20;92.60
37285;DHT22;23172;53.550;9.964;2023-09-19T22:58:43;19.30;92.60
37285;DHT22;23172;53.550;9.964;2023-09-19T23:03:45;19.30;92.70
37285;DHT22;23172;53.550;9.964;2023-09-19T23:08:52;19.30;93.40
37285;DHT22;23172;53.550;9.964;2023-09-19T23:13:54;19.30;93.30
37285;DHT22;23172;53.550;9.964;2023-09-19T23:18:59;19.30;93.40
37285;DHT22;23172;53.550;9.964;2023-09-19T23:24:16;19.30;93.20
37285;DHT22;23172;53.550;9.964;2023-09-19T23:29:21;19.30;93.10
37285;DHT22;23172;53.550;9.964;2023-09-19T23:34:25;19.30;92.90
37285;DHT22;23172;53.550;9.964;2023-09-19T23:39:29;19.30;92.80
37285;DHT22;23172;53.550;9.964;2023-09-19T23:44:31;19.30;92.50
37285;DHT22;23172;53.550;9.964;2023-09-19T23:49:34;19.30;92.50
37285;DHT22;23172;53.550;9.964;2023-09-19T23:54:37;19.40;92.40
37285;DHT22;23172;53.550;9.964;2023-09-19T23:59:40;19.40;92.20
